Time;durP1;ratioP1;P1;durP2;ratioP2;P2;SDS_P1;SDS_P2;PMS_P1;PMS_P2;Temp;Humidity;BMP_temperature;BMP_pressure;BME280_temperature;BME280_humidity;BME280_pressure;Samples;Min_cycle;Max_cycle;Signal;HPM_P1;HPM_P2
2023/06/15 00:00:17;;;;;;;4.40;2.20;;;;;;;16.81;100.00;100417.38;5052509;28;20029;-72
2023/06/15 00:02:42;;;;;;;4.00;2.50;;;;;;;16.83;100.00;100420.63;5046154;28;20037;-72
2023/06/15 00:05:08;;;;;;;3.58;1.95;;;;;;;16.80;100.00;100421.00;5046157;28;20095;-72
2023/06/15 00:07:33;;;;;;;5.88;2.53;;;;;;;16.85;100.00;100417.81;5048610;28;20125;-72
2023/06/15 00:09:59;;;;;;;4.60;2.22;;;;;;;16.90;100.00;100424.16;5051124;28;20299;-72
2023/06/15 00:12:25;;;;;;;3.10;1.92;;;;;;;17.13;100.00;100425.78;5044047;28;20052;-72
2023/06/15 00:14:50;;;;;;;4.00;2.28;;;;;;;17.20;100.00;100424.03;5052874;28;20025;-72
2023/06/15 00:17:16;;;;;;;4.95;2.28;;;;;;;17.13;100.00;100428.41;5046628;28;20043;-72
2023/06/15 00:19:43;;;;;;;5.13;2.42;;;;;;;17.13;100.00;100423.97;5046490;28;20596;-71
2023/06/15 00:22:14;;;;;;;2.45;2.17;;;;;;;17.22;100.00;100419.38;5050044;28;20076;-72
2023/06/15 00:24:42;;;;;;;3.63;1.70;;;;;;;17.46;100.00;100421.66;5048220;28;20127;-72
2023/06/15 00:27:11;;;;;;;4.78;1.75;;;;;;;17.65;100.00;100419.34;5043556;28;20033;-72
2023/06/15 00:29:37;;;;;;;5.57;2.13;;;;;;;17.78;100.00;100419.47;5034457;28;20461;-71
2023/06/15 00:32:06;;;;;;;4.75;2.05;;;;;;;17.89;100.00;100418.94;5042125;28;20488;-71
2023/06/15 00:34:31;;;;;;;4.10;1.50;;;;;;;18.24;100.00;100417.91;5045253;28;20112;-72
2023/06/15 00:36:57;;;;;;;6.05;1.83;;;;;;;18.41;96.21;100421.03;5036974;28;20036;-72
2023/06/15 00:39:22;;;;;;;2.60;1.52;;;;;;;18.50;96.58;100411.09;5040825;28;20118;-72
2023/06/15 00:41:48;;;;;;;2.40;1.73;;;;;;;18.47;97.04;100414.13;5043526;28;20473;-72
2023/06/15 00:44:13;;;;;;;4.47;2.17;;;;;;;18.46;96.86;100415.16;5051714;28;20513;-72
2023/06/15 00:46:39;;;;;;;3.35;2.10;;;;;;;18.31;100.00;100404.75;5040798;28;20388;-72
2023/06/15 00:49:06;;;;;;;3.88;2.08;;;;;;;17.95;100.00;100415.53;5057100;28;20082;-72
2023/06/15 00:51:34;;;;;;;5.00;2.20;;;;;;;17.66;100.00;100399.91;5043170;28;20484;-72
2023/06/15 00:54:00;;;;;;;4.35;2.70;;;;;;;17.40;100.00;100409.22;5037976;28;20385;-72
2023/06/15 00:56:29;;;;;;;4.70;2.40;;;;;;;17.24;100.00;100407.66;5045781;28;20424;-72
2023/06/15 00:58:56;;;;;;;3.03;2.72;;;;;;;17.08;100.00;100407.09;5040977;28;20473;-72
2023/06/15 01:01:21;;;;;;;3.42;2.35;;;;;;;17.00;100.00;100405.44;5038792;28;20045;-72
2023/06/15 01:03:47;;;;;;;2.55;2.20;;;;;;;16.94;100.00;100403.53;5048697;28;20086;-72
2023/06/15 01:06:15;;;;;;;3.78;2.47;;;;;;;17.08;100.00;100402.66;5040475;28;20037;-72
2023/06/15 01:08:43;;;;;;;2.85;1.58;;;;;;;17.82;100.00;100397.00;5045934;28;20030;-72
2023/06/15 01:11:09;;;;;;;2.95;1.92;;;;;;;18.10;100.00;100389.84;5047426;28;20044;-72
2023/06/15 01:13:36;;;;;;;3.38;1.95;;;;;;;18.11;100.00;100388.03;5052824;28;20055;-72
2023/06/15 01:16:06;;;;;;;3.83;2.47;;;;;;;18.07;100.00;100387.59;5047193;28;20025;-72
2023/06/15 01:18:34;;;;;;;2.65;2.30;;;;;;;17.82;100.00;100382.00;5046112;28;20029;-73
2023/06/15 01:21:04;;;;;;;4.13;2.45;;;;;;;17.58;100.00;100390.31;5043435;28;20083;-72
2023/06/15 01:23:35;;;;;;;7.22;2.53;;;;;;;17.43;100.00;100381.69;5045355;28;20024;-72
2023/06/15 01:26:09;;;;;;;3.47;2.90;;;;;;;17.28;100.00;100373.88;5045982;28;20025;-72
2023/06/15 01:28:40;;;;;;;5.43;3.00;;;;;;;17.05;100.00;100376.69;5040479;28;20049;-72
2023/06/15 01:31:06;;;;;;;4.88;2.80;;;;;;;17.00;100.00;100373.03;5045859;28;20017;-72
2023/06/15 01:33:32;;;;;;;4.00;2.90;;;;;;;17.05;100.00;100375.88;5043673;28;20043;-72
2023/06/15 01:36:00;;;;;;;8.98;3.03;;;;;;;17.06;100.00;100367.81;5040006;28;21336;-72
2023/06/15 01:38:29;;;;;;;6.90;2.97;;;;;;;17.03;100.00;100362.09;5044081;28;20033;-72
2023/06/15 01:40:56;;;;;;;5.32;2.90;;;;;;;16.96;100.00;100366.50;5047459;28;20095;-72
2023/06/15 01:43:27;;;;;;;5.63;2.95;;;;;;;16.85;100.00;100366.00;5041836;28;20026;-72
2023/06/15 01:45:55;;;;;;;5.78;3.17;;;;;;;16.79;100.00;100368.56;5050383;28;20047;-72
2023/06/15 01:48:21;;;;;;;4.68;3.00;;;;;;;16.74;100.00;100368.31;5045868;28;20061;-72
2023/06/15 01:50:49;;;;;;;8.10;3.30;;;;;;;16.69;100.00;100365.41;5045941;28;20120;-72
2023/06/15 01:53:14;;;;;;;7.18;3.28;;;;;;;16.67;100.00;100364.78;5044441;28;20032;-72
2023/06/15 01:55:40;;;;;;;7.85;2.97;;;;;;;16.64;100.00;100359.88;5045035;28;20048;-72
2023/06/15 01:58:06;;;;;;;3.88;3.00;;;;;;;16.56;100.00;100361.63;5039818;28;20423;-72
2023/06/15 02:00:31;;;;;;;4.97;3.30;;;;;;;16.47;100.00;100356.69;5046998;28;20499;-72
2023/06/15 02:02:57;;;;;;;6.40;3.10;;;;;;;16.42;100.00;100365.13;5050546;28;20021;-72
2023/06/15 02:05:22;;;;;;;5.57;3.25;;;;;;;16.39;100.00;100364.66;5044575;28;20037;-72
2023/06/15 02:07:48;;;;;;;4.75;3.08;;;;;;;16.33;100.00;100355.69;5041452;28;20037;-72
2023/06/15 02:10:13;;;;;;;3.88;2.67;;;;;;;16.29;100.00;100358.88;5045993;28;20111;-72
2023/06/15 02:12:39;;;;;;;5.78;3.67;;;;;;;16.25;100.00;100353.19;5050992;28;20056;-72
2023/06/15 02:15:05;;;;;;;11.38;3.25;;;;;;;16.26;100.00;100355.63;5046348;28;20045;-73
2023/06/15 02:17:39;;;;;;;4.20;3.00;;;;;;;16.22;100.00;100346.47;5048079;28;20456;-72
2023/06/15 02:20:09;;;;;;;5.03;3.15;;;;;;;16.21;100.00;100352.72;5048180;28;20536;-72
2023/06/15 02:22:35;;;;;;;6.53;3.97;;;;;;;16.19;100.00;100357.34;5046286;28;20045;-72
2023/06/15 02:25:00;;;;;;;3.85;3.08;;;;;;;16.03;100.00;100360.19;5046955;28;20028;-72
2023/06/15 02:27:26;;;;;;;4.28;3.10;;;;;;;16.06;100.00;100356.38;5047674;28;20029;-72
2023/06/15 02:29:51;;;;;;;4.80;2.70;;;;;;;16.17;100.00;100356.72;5049543;28;20029;-72
2023/06/15 02:32:34;;;;;;;4.10;2.80;;;;;;;16.17;100.00;100354.09;5051668;28;20041;-72
2023/06/15 02:35:01;;;;;;;8.43;3.72;;;;;;;16.12;100.00;100351.19;5035743;28;20041;-72
2023/06/15 02:37:27;;;;;;;4.85;3.40;;;;;;;16.02;100.00;100350.69;5043471;28;20047;-72
2023/06/15 02:39:52;;;;;;;4.20;3.30;;;;;;;16.05;100.00;100355.56;5043875;28;20033;-72
2023/06/15 02:42:17;;;;;;;6.10;3.85;;;;;;;16.05;100.00;100354.75;5040893;28;20501;-72
2023/06/15 02:44:43;;;;;;;4.20;3.38;;;;;;;15.98;100.00;100352.03;5038787;28;20557;-72
2023/06/15 02:47:08;;;;;;;6.97;3.95;;;;;;;15.90;100.00;100345.06;5042630;28;20044;-72
2023/06/15 02:49:34;;;;;;;3.80;3.05;;;;;;;15.84;100.00;100345.78;5035483;28;20038;-72
2023/06/15 02:51:59;;;;;;;3.38;3.00;;;;;;;15.81;100.00;100353.22;5035864;28;20160;-72
2023/06/15 02:54:25;;;;;;;6.38;3.95;;;;;;;15.74;100.00;100344.41;5040766;28;20060;-72
2023/06/15 02:56:51;;;;;;;7.85;3.60;;;;;;;15.73;100.00;100351.47;5035860;28;20109;-72
2023/06/15 02:59:17;;;;;;;7.18;3.53;;;;;;;15.71;100.00;100347.41;5047271;28;20078;-72
2023/06/15 03:01:43;;;;;;;6.97;3.47;;;;;;;15.66;100.00;100352.38;5043296;28;20048;-72
2023/06/15 03:04:09;;;;;;;6.40;3.22;;;;;;;15.62;100.00;100351.09;5054926;28;20029;-72
2023/06/15 03:06:36;;;;;;;3.67;3.28;;;;;;;15.55;100.00;100348.38;5037018;28;20061;-72
2023/06/15 03:09:02;;;;;;;12.25;3.97;;;;;;;15.50;100.00;100342.84;5040584;28;20397;-72
2023/06/15 03:11:28;;;;;;;4.82;3.55;;;;;;;15.47;100.00;100344.03;5041274;28;20044;-72
2023/06/15 03:13:53;;;;;;;5.28;3.10;;;;;;;15.46;100.00;100350.25;5036387;28;20131;-72
2023/06/15 03:16:20;;;;;;;5.85;3.80;;;;;;;15.48;100.00;100358.78;5049695;28;20396;-72
2023/06/15 03:18:46;;;;;;;7.65;3.85;;;;;;;15.49;100.00;100363.03;5052570;28;20111;-72
2023/06/15 03:21:12;;;;;;;4.85;3.33;;;;;;;15.49;100.00;100365.66;5038626;28;20119;-72
2023/06/15 03:23:38;;;;;;;3.85;3.35;;;;;;;15.48;100.00;100365.84;5036966;28;20033;-72
2023/06/15 03:26:06;;;;;;;4.95;2.75;;;;;;;15.47;100.00;100369.47;5051335;28;20036;-72
2023/06/15 03:28:38;;;;;;;3.80;2.88;;;;;;;15.42;100.00;100372.63;5043073;28;20032;-72
2023/06/15 03:31:04;;;;;;;5.68;3.45;;;;;;;15.40;100.00;100377.22;5039270;28;20033;-72
2023/06/15 03:33:30;;;;;;;10.85;3.40;;;;;;;15.38;100.00;100378.41;5046478;28;20498;-72
2023/06/15 03:35:57;;;;;;;6.32;2.95;;;;;;;15.37;100.00;100377.59;5046870;28;20147;-72
2023/06/15 03:38:23;;;;;;;6.45;3.30;;;;;;;15.40;100.00;100379.03;5051788;28;20116;-72
2023/06/15 03:40:48;;;;;;;6.25;3.53;;;;;;;15.38;100.00;100371.34;5036621;28;20025;-72
2023/06/15 03:43:14;;;;;;;5.80;3.67;;;;;;;15.45;100.00;100381.94;5049894;28;20037;-72
2023/06/15 03:45:40;;;;;;;8.63;3.40;;;;;;;15.46;100.00;100389.66;5044317;28;20052;-72
2023/06/15 03:48:06;;;;;;;4.30;3.60;;;;;;;15.50;100.00;100384.84;5045932;28;20465;-72
2023/06/15 03:50:31;;;;;;;6.13;3.88;;;;;;;15.54;100.00;100389.56;5039157;28;20041;-72
2023/06/15 03:52:57;;;;;;;5.03;3.80;;;;;;;15.57;100.00;100389.25;5037778;28;20052;-72
2023/06/15 03:55:23;;;;;;;6.97;4.30;;;;;;;15.59;100.00;100389.91;5037340;28;20029;-73
2023/06/15 03:57:48;;;;;;;5.97;3.90;;;;;;;15.63;100.00;100389.50;5046733;28;20036;-73
2023/06/15 04:00:14;;;;;;;6.20;4.22;;;;;;;15.64;100.00;100386.69;5040108;28;20503;-74
2023/06/15 04:02:40;;;;;;;5.75;3.55;;;;;;;15.67;100.00;100385.53;5048302;28;20059;-73
2023/06/15 04:05:06;;;;;;;4.40;3.28;;;;;;;15.73;100.00;100390.88;5041930;28;20036;-73
2023/06/15 04:07:31;;;;;;;5.82;5.25;;;;;;;15.86;100.00;100393.72;5049830;28;20033;-73
2023/06/15 04:09:56;;;;;;;5.32;4.40;;;;;;;16.00;100.00;100394.72;5039995;28;20481;-70
2023/06/15 04:12:23;;;;;;;6.05;3.95;;;;;;;16.09;100.00;100388.34;5049003;28;20099;-70
2023/06/15 04:14:48;;;;;;;7.22;3.70;;;;;;;16.18;100.00;100389.88;5042235;28;20505;-70
2023/06/15 04:17:15;;;;;;;5.53;3.63;;;;;;;16.31;100.00;100398.94;5041713;28;20060;-71
2023/06/15 04:19:40;;;;;;;6.15;2.65;;;;;;;16.50;100.00;100393.13;5044733;28;20055;-70
2023/06/15 04:22:06;;;;;;;4.68;2.47;;;;;;;16.99;100.00;100398.53;5043737;28;20033;-70
2023/06/15 04:24:32;;;;;;;4.97;2.70;;;;;;;17.27;100.00;100401.22;5045513;28;20062;-70
2023/06/15 04:26:57;;;;;;;3.50;2.00;;;;;;;17.37;100.00;100393.81;5044879;28;20476;-71
2023/06/15 04:29:23;;;;;;;5.60;3.00;;;;;;;17.46;100.00;100395.31;5042708;28;20038;-72
2023/06/15 04:31:55;;;;;;;3.55;2.50;;;;;;;17.49;100.00;100397.53;5045675;28;20116;-71
2023/06/15 04:34:26;;;;;;;5.18;2.30;;;;;;;17.61;100.00;100389.09;5044800;28;20059;-72
2023/06/15 04:36:52;;;;;;;5.25;2.95;;;;;;;17.56;100.00;100393.13;5045236;28;20086;-72
2023/06/15 04:39:24;;;;;;;9.27;3.50;;;;;;;17.43;100.00;100403.59;5046673;28;20070;-72
2023/06/15 04:41:49;;;;;;;5.60;2.88;;;;;;;17.32;100.00;100398.00;5039615;28;20049;-72
2023/06/15 04:44:15;;;;;;;4.50;1.83;;;;;;;17.33;100.00;100400.47;5043754;28;20061;-72
2023/06/15 04:46:41;;;;;;;3.17;2.35;;;;;;;17.34;100.00;100399.44;5043905;28;20032;-72
2023/06/15 04:49:07;;;;;;;4.45;2.95;;;;;;;17.38;100.00;100403.34;5044695;28;20024;-71
2023/06/15 04:51:33;;;;;;;6.15;2.70;;;;;;;17.33;100.00;100400.47;5041373;28;20067;-71
2023/06/15 04:53:58;;;;;;;6.53;2.83;;;;;;;17.39;100.00;100398.88;5045292;28;20082;-71
2023/06/15 04:56:24;;;;;;;3.92;2.92;;;;;;;17.48;100.00;100398.56;5046407;28;20563;-71
2023/06/15 04:58:49;;;;;;;7.10;2.60;;;;;;;17.53;100.00;100398.78;5047245;28;20048;-72
2023/06/15 05:01:15;;;;;;;5.78;3.05;;;;;;;17.62;100.00;100394.19;5040743;28;20135;-71
2023/06/15 05:03:41;;;;;;;2.95;2.33;;;;;;;17.54;100.00;100403.03;5039021;28;20052;-71
2023/06/15 05:06:07;;;;;;;5.55;3.13;;;;;;;17.61;100.00;100395.19;5051466;28;20025;-71
2023/06/15 05:08:33;;;;;;;3.05;2.72;;;;;;;17.76;100.00;100408.31;5046821;28;20036;-71
2023/06/15 05:10:59;;;;;;;5.90;2.97;;;;;;;17.85;100.00;100409.78;5051194;28;20028;-72
2023/06/15 05:13:25;;;;;;;3.28;2.45;;;;;;;17.88;100.00;100393.59;5047728;28;20028;-71
2023/06/15 05:15:51;;;;;;;4.32;2.72;;;;;;;17.93;100.00;100396.47;5045128;28;20056;-72
2023/06/15 05:18:17;;;;;;;6.63;2.72;;;;;;;17.94;100.00;100398.09;5048484;28;20119;-71
2023/06/15 05:20:42;;;;;;;5.53;3.25;;;;;;;18.10;100.00;100402.22;5048746;28;20441;-72
2023/06/15 05:23:07;;;;;;;3.92;2.35;;;;;;;18.16;100.00;100404.88;5047233;28;20041;-72
2023/06/15 05:25:33;;;;;;;4.47;2.97;;;;;;;18.20;100.00;100400.03;5047988;28;20500;-72
2023/06/15 05:27:59;;;;;;;3.40;2.50;;;;;;;18.34;100.00;100406.19;5048403;28;20056;-72
2023/06/15 05:30:26;;;;;;;8.52;2.65;;;;;;;18.50;100.00;100406.66;5048746;28;20037;-71
2023/06/15 05:32:52;;;;;;;5.88;2.40;;;;;;;18.61;100.00;100415.03;5047475;28;20111;-72
2023/06/15 05:35:18;;;;;;;3.00;2.63;;;;;;;18.74;100.00;100405.34;5047978;28;20044;-72
2023/06/15 05:37:44;;;;;;;3.78;2.88;;;;;;;18.82;100.00;100410.44;5048418;28;20021;-71
2023/06/15 05:40:09;;;;;;;3.75;2.63;;;;;;;18.89;100.00;100410.47;5048306;28;20032;-69
2023/06/15 05:42:35;;;;;;;3.47;2.15;;;;;;;19.03;100.00;100413.91;5045255;28;20033;-69
2023/06/15 05:45:01;;;;;;;4.72;4.25;;;;;;;19.13;100.00;100414.34;5050929;28;20056;-70
2023/06/15 05:47:26;;;;;;;4.07;2.88;;;;;;;19.27;100.00;100418.63;5047284;28;20025;-69
2023/06/15 05:49:51;;;;;;;4.18;2.70;;;;;;;19.45;100.00;100426.75;5049166;28;20064;-70
2023/06/15 05:52:17;;;;;;;4.85;2.78;;;;;;;19.58;100.00;100425.97;5049100;28;20029;-70
2023/06/15 05:54:46;;;;;;;2.92;2.35;;;;;;;19.81;100.00;100433.50;5048263;28;20040;-70
2023/06/15 05:57:12;;;;;;;2.92;1.90;;;;;;;19.89;99.41;100428.78;5047415;28;20061;-69
2023/06/15 05:59:38;;;;;;;3.03;2.15;;;;;;;19.99;98.30;100425.72;5052107;28;20459;-69
2023/06/15 06:02:04;;;;;;;3.80;2.47;;;;;;;20.15;97.52;100432.41;5037576;28;20037;-69
2023/06/15 06:04:30;;;;;;;4.25;2.30;;;;;;;20.30;95.82;100426.88;5052068;28;20032;-69
2023/06/15 06:06:55;;;;;;;4.55;2.17;;;;;;;20.51;93.43;100431.88;5052217;28;20025;-69
2023/06/15 06:09:21;;;;;;;2.97;2.20;;;;;;;20.64;91.79;100439.78;5045515;28;20076;-69
2023/06/15 06:11:47;;;;;;;3.25;1.90;;;;;;;20.71;91.41;100432.63;5051176;28;20033;-69
2023/06/15 06:14:16;;;;;;;3.42;2.13;;;;;;;20.77;90.03;100438.91;5047150;28;20040;-69
2023/06/15 06:16:42;;;;;;;4.72;2.28;;;;;;;20.68;88.17;100435.69;5041677;28;20187;-70
2023/06/15 06:19:07;;;;;;;5.28;2.28;;;;;;;20.69;89.15;100442.59;5046478;28;20064;-70
2023/06/15 06:21:33;;;;;;;2.28;1.80;;;;;;;20.64;87.15;100441.59;5050418;28;20071;-70
2023/06/15 06:23:59;;;;;;;2.30;1.73;;;;;;;20.59;87.31;100442.22;5052221;28;20041;-70
2023/06/15 06:26:25;;;;;;;2.05;1.60;;;;;;;20.71;86.14;100442.41;5050563;28;20026;-70
2023/06/15 06:28:51;;;;;;;2.42;1.70;;;;;;;20.96;85.88;100445.09;5054822;28;20103;-70
2023/06/15 06:31:16;;;;;;;3.78;1.80;;;;;;;20.98;85.60;100451.81;5051999;28;20024;-70
2023/06/15 06:33:42;;;;;;;2.17;1.98;;;;;;;20.71;85.58;100452.97;5050651;28;20892;-70
2023/06/15 06:36:10;;;;;;;2.05;1.60;;;;;;;20.47;86.32;100449.19;5046522;28;20091;-71
2023/06/15 06:38:36;;;;;;;2.35;1.73;;;;;;;20.48;85.38;100451.63;5050924;28;20039;-70
2023/06/15 06:41:02;;;;;;;5.95;2.50;;;;;;;20.52;84.55;100452.03;5050319;28;20124;-70
2023/06/15 06:43:28;;;;;;;2.03;1.85;;;;;;;20.54;85.28;100461.38;5042876;28;20033;-71
2023/06/15 06:45:53;;;;;;;3.15;2.33;;;;;;;20.56;85.65;100455.88;5048848;28;20065;-71
2023/06/15 06:48:19;;;;;;;6.88;1.95;;;;;;;20.51;85.57;100453.88;5051178;28;20087;-71
2023/06/15 06:50:45;;;;;;;6.43;2.35;;;;;;;20.51;85.81;100456.50;5045575;28;20037;-72
2023/06/15 06:53:11;;;;;;;3.97;1.90;;;;;;;20.67;85.62;100444.66;5046745;28;20114;-71
2023/06/15 06:55:37;;;;;;;5.97;2.03;;;;;;;21.04;84.74;100450.16;5050843;28;20029;-71
2023/06/15 06:58:02;;;;;;;2.92;1.77;;;;;;;21.29;83.46;100450.19;5053163;28;20079;-71
2023/06/15 07:00:28;;;;;;;2.92;2.10;;;;;;;21.49;83.13;100451.69;5052787;28;20113;-71
2023/06/15 07:02:54;;;;;;;1.90;1.45;;;;;;;21.69;81.26;100448.06;5050142;28;20033;-71
2023/06/15 07:05:20;;;;;;;4.30;1.73;;;;;;;21.78;80.37;100438.78;5051403;28;20037;-70
2023/06/15 07:07:46;;;;;;;3.15;2.28;;;;;;;21.86;80.13;100441.16;5049109;28;20029;-71
2023/06/15 07:10:12;;;;;;;5.15;1.52;;;;;;;22.04;78.25;100433.25;5051214;28;20032;-71
2023/06/15 07:12:38;;;;;;;2.47;2.08;;;;;;;22.30;77.89;100445.41;5052197;28;20078;-71
2023/06/15 07:15:05;;;;;;;2.20;1.67;;;;;;;22.26;76.86;100443.41;5049114;28;20080;-71
2023/06/15 07:17:30;;;;;;;7.82;2.38;;;;;;;22.27;75.43;100439.72;5049950;28;20111;-71
2023/06/15 07:19:56;;;;;;;3.03;2.00;;;;;;;22.06;74.51;100436.50;5049433;28;20032;-71
2023/06/15 07:22:21;;;;;;;3.47;1.63;;;;;;;22.03;73.97;100444.91;5045006;28;20028;-70
2023/06/15 07:24:46;;;;;;;2.05;1.85;;;;;;;22.26;74.54;100433.63;5044960;28;20045;-71
2023/06/15 07:27:12;;;;;;;3.75;1.73;;;;;;;22.48;74.79;100432.13;5039056;28;20469;-71
2023/06/15 07:29:37;;;;;;;3.33;1.80;;;;;;;22.50;75.02;100435.38;5040384;28;20037;-70
2023/06/15 07:32:03;;;;;;;3.67;2.03;;;;;;;22.63;75.91;100437.06;5050463;28;20048;-71
2023/06/15 07:34:29;;;;;;;3.13;2.03;;;;;;;22.77;75.22;100435.81;5046618;28;20029;-71
2023/06/15 07:36:54;;;;;;;4.53;1.98;;;;;;;22.86;73.75;100441.66;5043360;28;20046;-71
2023/06/15 07:39:20;;;;;;;3.85;1.50;;;;;;;22.94;72.88;100437.91;5046004;28;20028;-70
2023/06/15 07:41:45;;;;;;;2.90;1.90;;;;;;;23.10;72.54;100435.41;5050495;28;20377;-71
2023/06/15 07:44:12;;;;;;;4.15;1.50;;;;;;;23.00;73.18;100443.13;5046629;28;20127;-70
2023/06/15 07:46:41;;;;;;;5.15;2.20;;;;;;;22.69;74.08;100437.97;5045709;28;20029;-71
2023/06/15 07:49:07;;;;;;;4.45;2.00;;;;;;;22.37;75.32;100435.53;5047565;28;20036;-70
2023/06/15 07:51:34;;;;;;;4.10;1.90;;;;;;;22.10;75.92;100450.94;5046067;28;20090;-71
2023/06/15 07:53:59;;;;;;;2.28;1.77;;;;;;;21.98;77.12;100446.56;5045550;28;20033;-71
2023/06/15 07:56:25;;;;;;;2.60;1.98;;;;;;;21.99;78.34;100445.53;5049292;28;20037;-71
2023/06/15 07:58:51;;;;;;;1.67;1.50;;;;;;;21.96;77.06;100444.13;5044869;28;20044;-71
2023/06/15 08:01:16;;;;;;;2.33;1.65;;;;;;;21.98;77.30;100446.56;5044590;28;20081;-70
2023/06/15 08:03:42;;;;;;;2.28;2.05;;;;;;;22.22;77.18;100443.03;5049179;28;20033;-71
2023/06/15 08:06:07;;;;;;;3.60;1.85;;;;;;;22.47;75.92;100435.81;5048557;28;20028;-71
2023/06/15 08:08:33;;;;;;;3.67;2.08;;;;;;;22.53;75.21;100434.13;5052392;28;20028;-71
2023/06/15 08:10:58;;;;;;;2.45;1.88;;;;;;;22.65;75.24;100436.84;5045318;28;20036;-71
2023/06/15 08:13:24;;;;;;;4.82;1.98;;;;;;;22.72;75.14;100443.66;5047189;28;20029;-71
2023/06/15 08:15:50;;;;;;;4.22;2.08;;;;;;;22.79;74.27;100438.28;5050078;28;20107;-71
2023/06/15 08:18:15;;;;;;;3.20;1.70;;;;;;;22.57;73.64;100435.28;5045692;28;20055;-71
2023/06/15 08:20:41;;;;;;;3.30;1.40;;;;;;;22.26;74.51;100438.09;5047107;28;20086;-72
2023/06/15 08:23:07;;;;;;;4.80;1.90;;;;;;;22.15;74.46;100445.81;5042820;28;20033;-72
2023/06/15 08:25:34;;;;;;;7.78;1.67;;;;;;;22.43;72.59;100441.78;5039396;28;20500;-72
2023/06/15 08:28:02;;;;;;;3.72;1.77;;;;;;;22.57;71.78;100437.94;5049336;28;20025;-71
2023/06/15 08:30:28;;;;;;;3.40;2.10;;;;;;;22.52;72.32;100443.94;5048206;28;20029;-71
2023/06/15 08:32:53;;;;;;;4.75;1.60;;;;;;;22.56;72.88;100441.66;5048657;28;20063;-71
2023/06/15 08:35:19;;;;;;;3.53;1.90;;;;;;;22.55;73.23;100447.19;5046408;28;20041;-71
2023/06/15 08:37:45;;;;;;;2.85;1.80;;;;;;;22.97;71.33;100440.91;5048748;28;20078;-71
2023/06/15 08:40:11;;;;;;;3.88;1.75;;;;;;;23.34;69.79;100430.13;5049365;28;20444;-71
2023/06/15 08:42:38;;;;;;;2.00;1.65;;;;;;;23.73;67.75;100440.13;5041649;28;20037;-71
2023/06/15 08:45:05;;;;;;;3.38;2.25;;;;;;;24.05;65.75;100434.44;5049028;28;20049;-70
2023/06/15 08:47:32;;;;;;;5.10;1.75;;;;;;;24.14;65.91;100435.69;5054788;28;20062;-71
2023/06/15 08:50:00;;;;;;;3.50;2.03;;;;;;;24.36;66.00;100433.25;5050179;28;20405;-69
2023/06/15 08:52:30;;;;;;;1.73;1.45;;;;;;;24.29;65.35;100429.91;5042821;28;20041;-70
2023/06/15 08:54:57;;;;;;;3.70;1.52;;;;;;;24.43;65.97;100423.28;5040846;28;20091;-70
2023/06/15 08:57:22;;;;;;;3.17;1.52;;;;;;;24.63;65.92;100428.97;5051453;28;20040;-70
2023/06/15 08:59:48;;;;;;;2.58;1.35;;;;;;;24.73;65.85;100434.50;5047167;28;20202;-71
2023/06/15 09:02:21;;;;;;;1.95;1.30;;;;;;;24.77;63.90;100424.19;5049078;28;20040;-70
2023/06/15 09:04:51;;;;;;;3.78;1.50;;;;;;;24.84;64.76;100424.03;5046468;28;20033;-70
2023/06/15 09:07:20;;;;;;;4.38;1.50;;;;;;;24.73;63.73;100426.50;5046649;28;20503;-70
2023/06/15 09:10:10;;;;;;;2.25;1.42;;;;;;;24.80;60.68;100421.03;5048054;28;20025;-70
2023/06/15 09:12:51;;;;;;;2.15;1.73;;;;;;;24.88;60.83;100415.31;5048139;28;20029;-70
2023/06/15 09:15:22;;;;;;;4.38;1.65;;;;;;;24.99;61.50;100425.16;5044974;28;20591;-71
2023/06/15 09:17:54;;;;;;;3.58;1.17;;;;;;;24.77;60.64;100434.84;5047332;28;20025;-72
2023/06/15 09:20:21;;;;;;;8.77;1.75;;;;;;;24.78;60.07;100425.78;5050335;28;20599;-70
2023/06/15 09:22:47;;;;;;;1.83;0.90;;;;;;;24.76;56.67;100428.69;5042566;28;20093;-70
2023/06/15 09:25:14;;;;;;;2.05;1.50;;;;;;;24.61;55.08;100412.41;5042336;28;20123;-70
2023/06/15 09:27:39;;;;;;;1.90;1.08;;;;;;;24.61;54.36;100399.09;5050385;28;20037;-71
2023/06/15 09:30:07;;;;;;;2.63;1.33;;;;;;;24.63;53.24;100399.69;5048632;28;20058;-70
2023/06/15 09:32:32;;;;;;;2.42;1.40;;;;;;;24.63;52.74;100407.66;5050017;28;20045;-70
2023/06/15 09:34:58;;;;;;;2.65;1.15;;;;;;;24.73;52.10;100407.84;5049362;28;20033;-71
2023/06/15 09:37:27;;;;;;;1.50;0.88;;;;;;;24.72;51.41;100403.56;5050420;28;20029;-72
2023/06/15 09:39:53;;;;;;;2.22;1.10;;;;;;;24.82;52.78;100400.28;5048829;28;20032;-71
2023/06/15 09:42:25;;;;;;;2.70;1.23;;;;;;;24.89;49.20;100400.16;5048323;28;20038;-68
2023/06/15 09:44:58;;;;;;;3.67;1.00;;;;;;;24.81;49.39;100396.00;5045126;28;20044;-70
2023/06/15 09:47:29;;;;;;;1.55;0.82;;;;;;;24.73;51.24;100391.88;5054726;28;20083;-70
2023/06/15 09:49:54;;;;;;;2.75;1.00;;;;;;;24.81;52.16;100396.81;5052450;28;20040;-70
2023/06/15 09:52:20;;;;;;;1.77;1.00;;;;;;;24.96;52.98;100395.50;5051897;28;20427;-70
2023/06/15 09:54:47;;;;;;;1.63;1.38;;;;;;;25.21;53.26;100389.78;5052052;28;20397;-70
2023/06/15 09:57:14;;;;;;;3.28;1.05;;;;;;;25.13;53.79;100393.66;5052445;28;20143;-70
2023/06/15 09:59:39;;;;;;;2.08;0.98;;;;;;;25.17;54.94;100381.44;5049224;28;20029;-70
2023/06/15 10:02:10;;;;;;;3.17;0.75;;;;;;;25.25;52.68;100394.38;5049466;28;20123;-70
2023/06/15 10:04:39;;;;;;;3.17;1.00;;;;;;;25.26;52.10;100389.84;5050514;28;20021;-71
2023/06/15 10:07:05;;;;;;;5.32;1.27;;;;;;;25.17;51.16;100386.78;5051945;28;20040;-70
2023/06/15 10:09:46;;;;;;;2.40;1.42;;;;;;;25.22;48.95;100378.06;5043770;28;20041;-71
2023/06/15 10:12:20;;;;;;;1.40;0.98;;;;;;;25.44;50.97;100377.09;5053251;28;20035;-70
2023/06/15 10:15:01;;;;;;;1.58;0.88;;;;;;;25.53;46.72;100357.97;5051080;28;20043;-71
2023/06/15 10:17:35;;;;;;;2.78;1.00;;;;;;;25.58;50.86;100360.72;5043793;28;20693;-69
2023/06/15 10:20:11;;;;;;;2.80;1.13;;;;;;;25.74;51.56;100365.25;5051669;28;20036;-70
2023/06/15 10:23:04;;;;;;;2.97;1.00;;;;;;;25.90;53.53;100369.75;5051680;28;20039;-71
2023/06/15 10:25:31;;;;;;;1.30;0.93;;;;;;;26.26;53.49;100370.16;5050517;28;20112;-72
2023/06/15 10:28:09;;;;;;;2.13;1.23;;;;;;;26.30;53.08;100366.72;5051093;28;20524;-71
2023/06/15 10:30:49;;;;;;;2.75;1.00;;;;;;;26.08;53.54;100360.59;5046404;28;20037;-71
2023/06/15 10:33:22;;;;;;;2.83;1.00;;;;;;;26.24;53.04;100359.72;5053235;28;20036;-70
2023/06/15 10:35:55;;;;;;;2.00;1.05;;;;;;;26.39;51.95;100367.13;5048040;28;20492;-71
2023/06/15 10:38:45;;;;;;;3.30;1.30;;;;;;;26.33;52.34;100363.59;5047911;28;20123;-71
2023/06/15 10:41:10;;;;;;;2.00;1.33;;;;;;;26.31;55.44;100360.38;5049314;28;20400;-71
2023/06/15 10:43:36;;;;;;;1.67;0.93;;;;;;;26.42;54.22;100356.75;5047143;28;20098;-71
2023/06/15 10:46:02;;;;;;;2.25;1.02;;;;;;;26.26;53.54;100362.13;5048194;28;20386;-71
2023/06/15 10:48:29;;;;;;;4.75;0.93;;;;;;;26.00;53.22;100359.16;5050419;28;20033;-71
2023/06/15 10:51:05;;;;;;;3.75;0.82;;;;;;;25.74;49.66;100351.91;5051454;28;20048;-71
2023/06/15 10:53:41;;;;;;;2.97;1.20;;;;;;;25.75;50.15;100345.50;5050263;28;20469;-71
2023/06/15 10:56:19;;;;;;;1.73;1.00;;;;;;;25.99;50.56;100344.22;5051305;28;20055;-71
2023/06/15 10:59:05;;;;;;;1.67;1.20;;;;;;;26.24;51.43;100349.03;5050979;28;20044;-70
2023/06/15 11:01:32;;;;;;;3.35;0.77;;;;;;;26.34;54.20;100341.16;5045047;28;20508;-70
2023/06/15 11:03:59;;;;;;;2.97;1.10;;;;;;;26.36;53.68;100340.91;5051342;28;20036;-71
2023/06/15 11:06:36;;;;;;;1.95;0.90;;;;;;;26.25;50.98;100342.63;5049583;28;20396;-71
2023/06/15 11:09:13;;;;;;;1.58;1.02;;;;;;;26.30;48.90;100344.56;5044360;28;20059;-70
2023/06/15 11:11:42;;;;;;;1.65;0.90;;;;;;;26.24;52.58;100345.56;5054607;28;20039;-70
2023/06/15 11:14:22;;;;;;;1.73;0.90;;;;;;;26.22;48.41;100345.00;5047858;28;20059;-70
2023/06/15 11:17:04;;;;;;;1.92;1.00;;;;;;;26.07;49.46;100341.09;5048648;28;20472;-70
2023/06/15 11:19:30;;;;;;;2.72;1.55;;;;;;;26.01;52.07;100341.28;5049524;28;20045;-70
2023/06/15 11:22:00;;;;;;;2.95;1.35;;;;;;;26.19;53.44;100327.63;5049146;28;20036;-70